Terminal Aerodrome Forecast
Issued by NWS Sioux Falls, SD

Home | Current Version | Previous Version | Graphics & Text | Print | Product List | Glossary On
Versions: 1 2 3 4 5 6 7 8 9 10 11 12 13 14 15 16 17 18
000
FTUS43 KFSD 231741
TAFSUX
TAF
KSUX 231741Z 2318/2418 VRB04KT P6SM SKC
     FM232000 21007KT P6SM SCT250
     FM240000 14005KT P6SM SCT250
     FM240800 15006KT 3SM BR SCT150
     FM241000 15006KT 2SM BR OVC006
     FM241400 23008KT P6SM BKN250=

USA.gov is the U.S. government's official web portal to all federal, state and local government web resources and services.